Time;durP1;ratioP1;P1;durP2;ratioP2;P2;SDS_P1;SDS_P2;PMS_P1;PMS_P2;Temp;Humidity;BMP_temperature;BMP_pressure;BME280_temperature;BME280_humidity;BME280_pressure;Samples;Min_cycle;Max_cycle;Signal;HPM_P1;HPM_P2
2023/06/09 00:00:14;;;;;;;16.00;13.70;;;17.40;75.40;;;;;;5089278;28;20500;-80
2023/06/09 00:02:44;;;;;;;17.73;12.17;;;17.30;75.40;;;;;;5093195;28;20459;-79
2023/06/09 00:05:13;;;;;;;18.40;13.60;;;17.20;75.50;;;;;;5111960;28;20445;-79
2023/06/09 00:07:42;;;;;;;20.30;14.13;;;17.20;75.50;;;;;;5093987;28;20544;-80
2023/06/09 00:10:11;;;;;;;17.13;13.37;;;17.00;75.40;;;;;;5104646;28;20439;-80
2023/06/09 00:12:40;;;;;;;17.23;13.77;;;16.90;75.60;;;;;;5090526;28;20548;-83
2023/06/09 00:15:10;;;;;;;17.00;13.60;;;16.90;75.90;;;;;;5084162;28;21265;-80
2023/06/09 00:17:39;;;;;;;16.50;12.73;;;16.90;76.10;;;;;;5104445;28;20855;-83
2023/06/09 00:20:09;;;;;;;15.33;11.33;;;16.90;76.10;;;;;;5082294;28;20461;-80
2023/06/09 00:22:42;;;;;;;19.63;11.70;;;16.90;76.30;;;;;;5088404;28;20459;-80
2023/06/09 00:25:13;;;;;;;14.07;11.63;;;17.00;76.40;;;;;;5094950;28;20445;-80
2023/06/09 00:27:43;;;;;;;16.97;12.47;;;17.00;76.40;;;;;;5098272;28;20445;-80
2023/06/09 00:30:14;;;;;;;17.57;12.93;;;17.10;76.40;;;;;;5084363;28;20555;-82
2023/06/09 00:33:00;;;;;;;13.97;10.70;;;17.10;76.30;;;;;;5088283;28;20449;-81
2023/06/09 00:35:30;;;;;;;19.60;12.70;;;17.10;76.20;;;;;;5086466;28;20464;-81
2023/06/09 00:37:58;;;;;;;15.37;11.37;;;17.10;76.20;;;;;;5101512;28;20443;-82
2023/06/09 00:40:28;;;;;;;15.50;10.90;;;17.20;76.20;;;;;;5108184;28;20469;-81
2023/06/09 00:42:56;;;;;;;17.03;11.87;;;17.20;76.00;;;;;;5103014;28;20440;-81
2023/06/09 00:45:24;;;;;;;14.87;12.10;;;17.20;76.00;;;;;;5091820;28;20452;-79
2023/06/09 00:47:52;;;;;;;18.27;12.77;;;17.20;76.00;;;;;;5085950;28;20464;-79
2023/06/09 00:50:20;;;;;;;15.50;11.73;;;17.20;76.00;;;;;;5093731;28;20444;-79
2023/06/09 00:52:51;;;;;;;15.47;12.07;;;17.20;76.10;;;;;;5091584;28;20463;-80
2023/06/09 00:55:21;;;;;;;14.90;11.47;;;17.20;76.10;;;;;;5080348;28;20473;-79
2023/06/09 00:57:55;;;;;;;14.30;11.60;;;17.30;76.10;;;;;;5099333;28;20463;-80
2023/06/09 01:00:27;;;;;;;15.30;11.70;;;17.30;76.00;;;;;;5112019;28;20456;-80
2023/06/09 01:03:00;;;;;;;16.37;11.80;;;17.30;75.90;;;;;;5110156;28;20534;-79
2023/06/09 01:05:29;;;;;;;17.83;10.20;;;17.20;75.90;;;;;;5084816;28;20536;-79
2023/06/09 01:08:05;;;;;;;18.17;10.53;;;17.20;75.90;;;;;;5097067;28;21023;-79
2023/06/09 01:10:50;;;;;;;12.93;10.60;;;17.20;75.90;;;;;;5089980;28;20522;-81
2023/06/09 01:13:29;;;;;;;12.83;10.33;;;17.20;75.80;;;;;;5083926;28;20484;-82
2023/06/09 01:16:06;;;;;;;13.83;10.70;;;17.20;75.80;;;;;;5091841;28;20923;-81
2023/06/09 01:18:36;;;;;;;13.27;11.03;;;17.20;75.80;;;;;;5093013;28;21440;-81
2023/06/09 01:21:17;;;;;;;17.50;12.53;;;17.20;75.80;;;;;;5103195;28;20501;-81
2023/06/09 01:23:58;;;;;;;16.20;13.00;;;17.20;75.70;;;;;;5097444;28;20441;-80
2023/06/09 01:26:29;;;;;;;15.80;12.67;;;17.20;75.60;;;;;;5110377;28;20446;-80
2023/06/09 01:28:59;;;;;;;15.73;12.23;;;17.10;75.70;;;;;;5089010;28;20471;-80
2023/06/09 01:31:28;;;;;;;21.70;13.30;;;17.10;75.60;;;;;;5103761;28;20467;-81
2023/06/09 01:33:57;;;;;;;15.43;12.80;;;17.10;75.60;;;;;;5095575;28;20536;-81
2023/06/09 01:36:26;;;;;;;21.53;13.27;;;17.10;75.60;;;;;;5112628;28;20463;-79
2023/06/09 01:38:55;;;;;;;15.50;11.67;;;17.10;75.60;;;;;;5091842;28;20453;-79
2023/06/09 01:41:23;;;;;;;15.23;11.37;;;17.00;75.60;;;;;;5095665;28;20500;-79
2023/06/09 01:43:54;;;;;;;15.67;12.13;;;17.00;75.60;;;;;;5112727;28;20439;-78
2023/06/09 01:46:22;;;;;;;16.93;12.43;;;17.00;75.60;;;;;;5101451;28;20483;-81
2023/06/09 01:49:01;;;;;;;17.37;13.00;;;17.00;75.60;;;;;;5091241;28;20452;-78
2023/06/09 01:51:37;;;;;;;21.63;11.57;;;17.00;75.60;;;;;;5086731;28;20449;-79
2023/06/09 01:54:10;;;;;;;18.03;12.77;;;17.00;75.50;;;;;;5091720;28;20938;-79
2023/06/09 01:56:43;;;;;;;15.63;11.80;;;17.00;75.40;;;;;;5110405;28;20510;-80
2023/06/09 01:59:16;;;;;;;25.70;14.30;;;17.00;75.40;;;;;;5087109;28;20443;-79
2023/06/09 02:01:47;;;;;;;35.30;16.40;;;16.90;75.40;;;;;;5097101;28;20487;-78
2023/06/09 02:04:17;;;;;;;26.27;15.13;;;16.90;75.40;;;;;;5103155;28;20513;-79
2023/06/09 02:06:51;;;;;;;21.70;13.70;;;16.90;75.50;;;;;;5097130;28;20474;-79
2023/06/09 02:09:20;;;;;;;21.50;15.20;;;16.90;75.60;;;;;;5113764;28;20457;-83
2023/06/09 02:11:51;;;;;;;21.63;15.30;;;16.90;75.60;;;;;;5114552;28;20454;-80
2023/06/09 02:14:20;;;;;;;20.60;15.30;;;16.90;75.60;;;;;;5089001;28;20510;-80
2023/06/09 02:16:53;;;;;;;21.53;14.93;;;16.90;75.50;;;;;;5090734;28;20472;-85
2023/06/09 02:19:22;;;;;;;27.40;14.50;;;16.80;75.40;;;;;;5110474;28;20472;-82
2023/06/09 02:21:50;;;;;;;18.00;12.97;;;16.80;75.50;;;;;;5106014;28;20452;-80
2023/06/09 02:24:19;;;;;;;17.60;12.30;;;16.70;75.50;;;;;;5089811;28;20460;-81
2023/06/09 02:26:51;;;;;;;17.73;13.03;;;16.70;75.50;;;;;;5105658;28;20926;-80
2023/06/09 02:29:20;;;;;;;15.90;13.50;;;16.70;75.40;;;;;;5107944;28;20994;-81
2023/06/09 02:31:49;;;;;;;15.77;13.00;;;16.70;75.40;;;;;;5086039;28;21027;-81
2023/06/09 02:34:19;;;;;;;13.70;11.70;;;16.70;75.40;;;;;;5091939;28;20544;-85
2023/06/09 02:36:48;;;;;;;13.60;10.60;;;16.60;75.40;;;;;;5083781;28;20490;-86
2023/06/09 02:39:17;;;;;;;15.17;11.27;;;16.60;75.40;;;;;;5091744;28;20455;-85
2023/06/09 02:41:45;;;;;;;14.30;11.63;;;16.50;75.30;;;;;;5103381;28;20890;-85
2023/06/09 02:44:15;;;;;;;15.30;12.13;;;16.50;75.40;;;;;;5089890;28;20460;-86
2023/06/09 02:46:45;;;;;;;14.47;12.17;;;16.50;75.40;;;;;;5088140;28;20539;-85
2023/06/09 02:49:13;;;;;;;15.00;11.47;;;16.50;75.30;;;;;;5092389;28;20480;-87
2023/06/09 02:51:42;;;;;;;14.20;11.70;;;16.50;75.40;;;;;;5088917;28;20460;-85
2023/06/09 02:54:12;;;;;;;12.13;9.93;;;16.40;75.50;;;;;;5087975;28;20467;-85
2023/06/09 02:56:45;;;;;;;15.30;12.13;;;16.40;75.50;;;;;;5085573;28;20472;-83
2023/06/09 02:59:14;;;;;;;15.80;11.30;;;16.40;75.40;;;;;;5089153;28;20489;-80
2023/06/09 03:01:43;;;;;;;15.10;11.00;;;16.40;75.60;;;;;;5091597;28;20467;-81
2023/06/09 03:04:13;;;;;;;15.83;11.60;;;16.40;75.60;;;;;;5107612;28;20452;-85
2023/06/09 03:06:48;;;;;;;14.77;11.40;;;16.40;75.60;;;;;;5083910;28;20508;-85
2023/06/09 03:09:18;;;;;;;14.27;10.70;;;16.40;75.60;;;;;;5104859;28;20459;-85
2023/06/09 03:11:51;;;;;;;13.33;10.27;;;16.40;75.60;;;;;;5102121;28;20510;-81
2023/06/09 03:14:20;;;;;;;14.30;11.43;;;16.40;75.60;;;;;;5088963;28;20469;-81
2023/06/09 03:16:49;;;;;;;16.00;12.47;;;16.30;75.50;;;;;;5088528;28;21050;-79
2023/06/09 03:19:18;;;;;;;14.43;11.50;;;16.30;75.40;;;;;;5092409;28;20803;-79
2023/06/09 03:21:46;;;;;;;17.60;11.50;;;16.30;75.40;;;;;;5087967;28;20464;-80
2023/06/09 03:24:14;;;;;;;15.13;12.80;;;16.30;75.40;;;;;;5090415;28;20454;-79
2023/06/09 03:26:43;;;;;;;15.50;12.60;;;16.30;75.40;;;;;;5105582;28;20462;-79
2023/06/09 03:29:11;;;;;;;18.73;13.40;;;16.30;75.50;;;;;;5086347;28;20962;-79
2023/06/09 03:31:41;;;;;;;21.67;14.33;;;16.20;75.40;;;;;;5082509;28;20473;-79
2023/06/09 03:34:10;;;;;;;16.00;13.20;;;16.10;75.40;;;;;;5105564;28;20451;-80
2023/06/09 03:36:41;;;;;;;19.70;14.73;;;16.10;75.60;;;;;;5088021;28;20492;-80
2023/06/09 03:39:09;;;;;;;17.80;12.80;;;16.00;75.70;;;;;;5086207;28;20476;-78
2023/06/09 03:41:37;;;;;;;19.23;14.20;;;16.00;75.70;;;;;;5088420;28;20494;-79
2023/06/09 03:44:06;;;;;;;22.93;15.53;;;16.00;75.80;;;;;;5093789;28;20508;-80
2023/06/09 03:46:34;;;;;;;32.13;15.10;;;15.90;75.80;;;;;;5083710;28;20486;-79
2023/06/09 03:49:07;;;;;;;33.60;16.50;;;15.80;75.80;;;;;;5089150;28;20448;-79
2023/06/09 03:51:35;;;;;;;21.10;15.60;;;15.80;76.00;;;;;;5089501;28;20809;-81
2023/06/09 03:54:04;;;;;;;21.70;16.13;;;15.70;76.20;;;;;;5103068;28;20456;-82
2023/06/09 03:56:33;;;;;;;19.63;14.73;;;15.60;76.30;;;;;;5093973;28;20553;-81
2023/06/09 03:59:01;;;;;;;18.60;14.80;;;15.60;76.50;;;;;;5093472;28;20475;-80
2023/06/09 04:01:30;;;;;;;17.93;14.27;;;15.60;76.80;;;;;;5085049;28;20487;-80
2023/06/09 04:03:59;;;;;;;16.60;12.50;;;15.70;77.00;;;;;;5099611;28;20874;-82
2023/06/09 04:06:29;;;;;;;19.77;11.60;;;15.80;77.10;;;;;;5105584;28;20465;-80
2023/06/09 04:08:57;;;;;;;15.97;11.80;;;15.90;77.10;;;;;;5101901;28;20451;-81
2023/06/09 04:11:29;;;;;;;16.43;11.73;;;16.00;76.90;;;;;;5096814;28;20889;-82
2023/06/09 04:13:59;;;;;;;22.83;12.20;;;16.10;76.80;;;;;;5079697;28;20455;-81
2023/06/09 04:16:27;;;;;;;16.63;12.07;;;16.10;76.60;;;;;;5086123;28;20460;-81
2023/06/09 04:18:57;;;;;;;17.40;13.00;;;16.20;76.50;;;;;;5090972;28;20469;-84
2023/06/09 04:21:26;;;;;;;19.47;12.53;;;16.30;76.40;;;;;;5091808;28;20969;-84
2023/06/09 04:23:54;;;;;;;16.77;13.87;;;16.30;76.40;;;;;;5087767;28;21149;-82
2023/06/09 04:26:23;;;;;;;14.90;12.33;;;16.40;76.30;;;;;;5096979;28;20504;-82
2023/06/09 04:28:54;;;;;;;18.13;14.20;;;16.50;76.20;;;;;;5091983;28;20463;-82
2023/06/09 04:31:24;;;;;;;21.13;15.67;;;16.50;76.10;;;;;;5089907;28;20501;-81
2023/06/09 04:33:53;;;;;;;20.57;15.50;;;16.60;76.10;;;;;;5090147;28;20476;-80
2023/06/09 04:36:22;;;;;;;22.33;13.60;;;16.70;76.00;;;;;;5098065;28;20891;-81
2023/06/09 04:38:50;;;;;;;16.40;12.80;;;16.70;76.20;;;;;;5085444;28;20475;-80
2023/06/09 04:41:18;;;;;;;15.13;13.03;;;16.80;76.40;;;;;;5089175;28;20470;-81
2023/06/09 04:43:49;;;;;;;14.57;12.57;;;17.00;76.50;;;;;;5089752;28;20551;-82
2023/06/09 04:46:22;;;;;;;15.63;13.60;;;17.20;76.40;;;;;;5084027;28;20503;-81
2023/06/09 04:48:54;;;;;;;16.13;14.23;;;17.30;76.40;;;;;;5105955;28;20453;-81
2023/06/09 04:51:24;;;;;;;16.33;13.43;;;17.50;76.30;;;;;;5088062;28;20456;-81
2023/06/09 04:53:53;;;;;;;16.00;13.27;;;17.60;76.30;;;;;;5088118;28;20549;-80
2023/06/09 04:56:26;;;;;;;18.00;13.33;;;17.70;76.40;;;;;;5101308;28;20459;-81
2023/06/09 04:58:56;;;;;;;15.90;12.97;;;17.90;76.30;;;;;;5084364;28;20464;-81
2023/06/09 05:01:26;;;;;;;19.47;13.87;;;18.00;76.20;;;;;;5089488;28;20496;-81
2023/06/09 05:03:56;;;;;;;15.83;12.73;;;18.20;76.10;;;;;;5092346;28;20545;-81
2023/06/09 05:06:24;;;;;;;18.27;14.27;;;18.30;76.00;;;;;;5087307;28;20461;-80
2023/06/09 05:08:52;;;;;;;17.73;13.90;;;18.40;76.00;;;;;;5083406;28;20460;-81
2023/06/09 05:11:20;;;;;;;14.43;12.90;;;18.50;76.00;;;;;;5078083;28;20465;-80
2023/06/09 05:13:49;;;;;;;14.33;12.80;;;18.70;75.90;;;;;;5091209;28;21002;-81
2023/06/09 05:16:17;;;;;;;15.00;12.00;;;18.80;75.90;;;;;;5088461;28;20453;-81
2023/06/09 05:18:46;;;;;;;17.87;13.53;;;19.00;75.90;;;;;;5090009;28;20463;-81
2023/06/09 05:21:14;;;;;;;14.87;13.23;;;19.10;75.70;;;;;;5105734;28;20490;-80
2023/06/09 05:23:43;;;;;;;14.93;12.73;;;19.30;75.70;;;;;;5091442;28;20472;-81
2023/06/09 05:26:11;;;;;;;16.10;13.03;;;19.40;75.60;;;;;;5094486;28;20473;-80
2023/06/09 05:28:39;;;;;;;15.73;12.80;;;19.60;75.60;;;;;;5088435;28;20465;-82
2023/06/09 05:31:08;;;;;;;14.53;12.30;;;19.70;75.60;;;;;;5092873;28;21113;-80
2023/06/09 05:33:37;;;;;;;16.53;13.23;;;19.90;75.90;;;;;;5091587;28;20529;-80
2023/06/09 05:36:10;;;;;;;14.60;12.00;;;20.20;76.20;;;;;;5099128;28;20452;-80
2023/06/09 05:38:43;;;;;;;15.07;11.50;;;20.70;76.10;;;;;;5087856;28;20481;-80
2023/06/09 05:41:11;;;;;;;13.67;11.70;;;21.40;74.80;;;;;;5103303;28;20489;-82
2023/06/09 05:43:40;;;;;;;14.17;12.27;;;22.30;73.10;;;;;;5104225;28;20467;-81
2023/06/09 05:46:08;;;;;;;14.33;11.77;;;23.10;71.40;;;;;;5104985;28;20826;-81
2023/06/09 05:48:36;;;;;;;13.73;11.60;;;23.80;70.20;;;;;;5102052;28;20457;-81
2023/06/09 05:51:04;;;;;;;13.60;10.00;;;24.50;69.20;;;;;;5102385;28;20499;-81
2023/06/09 05:53:34;;;;;;;12.33;10.40;;;25.10;68.50;;;;;;5106336;28;20460;-80
2023/06/09 05:56:02;;;;;;;12.90;10.13;;;25.70;67.70;;;;;;5098948;28;20968;-81
2023/06/09 05:58:33;;;;;;;17.03;10.40;;;26.20;67.00;;;;;;5105029;28;20474;-82
2023/06/09 06:01:03;;;;;;;16.40;10.90;;;26.60;66.20;;;;;;5104014;28;20459;-82
2023/06/09 06:03:32;;;;;;;11.67;10.40;;;27.00;65.40;;;;;;5093031;28;20439;-81
2023/06/09 06:06:01;;;;;;;10.93;9.07;;;27.40;64.60;;;;;;5096775;28;20464;-81
2023/06/09 06:08:29;;;;;;;14.33;9.57;;;27.70;63.90;;;;;;5108580;28;20509;-81
2023/06/09 06:10:59;;;;;;;15.70;11.33;;;27.80;63.20;;;;;;5099479;28;21445;-82
2023/06/09 06:13:26;;;;;;;11.20;9.23;;;27.60;63.00;;;;;;5103054;28;20448;-82
2023/06/09 06:15:54;;;;;;;13.90;10.13;;;27.30;63.20;;;;;;5103987;28;20972;-80
2023/06/09 06:18:23;;;;;;;13.00;10.27;;;26.90;63.40;;;;;;5109099;28;20459;-82
2023/06/09 06:20:51;;;;;;;11.53;9.70;;;26.50;63.50;;;;;;5105481;28;20819;-82
2023/06/09 06:23:18;;;;;;;12.27;10.43;;;26.00;63.90;;;;;;5109765;27;20460;-81
2023/06/09 06:25:47;;;;;;;12.00;10.30;;;25.40;64.20;;;;;;5091395;28;20510;-80
2023/06/09 06:28:16;;;;;;;12.77;9.93;;;24.90;64.70;;;;;;5103855;28;20487;-81
2023/06/09 06:30:44;;;;;;;12.77;9.50;;;24.50;65.40;;;;;;5105595;28;20500;-80
2023/06/09 06:33:12;;;;;;;13.97;10.10;;;24.10;65.90;;;;;;5088499;28;20538;-82
2023/06/09 06:35:40;;;;;;;11.53;10.13;;;23.60;66.40;;;;;;5099394;28;20543;-81
2023/06/09 06:38:08;;;;;;;14.37;10.13;;;23.20;66.80;;;;;;5091106;28;20497;-80
2023/06/09 06:40:36;;;;;;;13.83;11.07;;;22.90;67.60;;;;;;5109302;28;20826;-82
2023/06/09 06:43:04;;;;;;;19.03;11.40;;;22.60;68.10;;;;;;5107551;28;20463;-80
2023/06/09 06:45:59;;;;;;;12.47;10.50;;;22.40;68.50;;;;;;5096294;28;20467;-82
2023/06/09 06:48:28;;;;;;;14.10;10.90;;;22.20;69.00;;;;;;5105568;28;20536;-81
2023/06/09 06:50:56;;;;;;;14.13;11.67;;;22.10;69.40;;;;;;5096982;28;20521;-81
2023/06/09 06:53:25;;;;;;;13.03;11.47;;;22.00;69.80;;;;;;5100957;28;20540;-82
2023/06/09 06:55:53;;;;;;;15.50;11.70;;;21.90;70.20;;;;;;5104432;28;21018;-81
2023/06/09 06:58:21;;;;;;;15.27;11.70;;;21.90;70.50;;;;;;5088077;28;20452;-81
2023/06/09 07:00:49;;;;;;;12.80;10.40;;;21.70;70.80;;;;;;5093109;28;20503;-80
2023/06/09 07:03:19;;;;;;;17.60;11.00;;;21.70;71.10;;;;;;5093190;28;21012;-81
2023/06/09 07:05:47;;;;;;;14.60;11.47;;;21.60;71.50;;;;;;5091127;28;20459;-81
2023/06/09 07:08:15;;;;;;;14.20;11.70;;;21.50;71.70;;;;;;5082983;28;20456;-82
2023/06/09 07:10:43;;;;;;;13.83;11.60;;;21.50;72.00;;;;;;5102739;28;20454;-83
2023/06/09 07:13:11;;;;;;;13.30;10.90;;;21.50;72.10;;;;;;5095020;28;20490;-80
2023/06/09 07:15:39;;;;;;;11.83;10.00;;;21.50;72.50;;;;;;5106581;28;20463;-82
2023/06/09 07:18:08;;;;;;;14.87;10.73;;;21.50;72.50;;;;;;5108079;28;21178;-82
2023/06/09 07:20:38;;;;;;;13.40;9.60;;;21.60;72.30;;;;;;5089847;28;21128;-82
2023/06/09 07:23:06;;;;;;;12.33;9.67;;;21.60;72.30;;;;;;5092728;28;20458;-81
2023/06/09 07:25:36;;;;;;;11.93;10.60;;;21.60;72.30;;;;;;5091196;28;20551;-81
2023/06/09 07:28:04;;;;;;;16.20;11.77;;;21.70;72.20;;;;;;5110926;28;20555;-82
2023/06/09 07:30:32;;;;;;;13.23;9.73;;;21.70;72.10;;;;;;5104984;28;20479;-80
2023/06/09 07:33:00;;;;;;;13.33;8.53;;;21.70;72.10;;;;;;5092439;28;20463;-81
2023/06/09 07:35:29;;;;;;;10.93;8.90;;;21.80;72.10;;;;;;5104740;28;20539;-81
2023/06/09 07:37:59;;;;;;;9.90;8.00;;;21.80;71.90;;;;;;5078381;28;20445;-81
2023/06/09 07:40:27;;;;;;;12.97;10.47;;;21.90;71.80;;;;;;5100578;28;20890;-80
2023/06/09 07:42:56;;;;;;;13.50;9.07;;;21.90;71.70;;;;;;5106475;28;20444;-81
2023/06/09 07:45:24;;;;;;;24.03;17.60;;;21.90;71.60;;;;;;5102625;28;20465;-81
2023/06/09 07:47:52;;;;;;;11.67;9.27;;;21.90;71.50;;;;;;5104010;28;20459;-82
2023/06/09 07:50:21;;;;;;;15.43;9.13;;;22.00;71.50;;;;;;5107873;28;20445;-81
2023/06/09 07:52:49;;;;;;;14.30;9.60;;;22.00;71.50;;;;;;5101328;28;20453;-81
2023/06/09 07:55:19;;;;;;;15.03;9.40;;;22.00;71.40;;;;;;5080886;28;20542;-80
2023/06/09 07:57:48;;;;;;;13.30;8.90;;;22.10;71.40;;;;;;5104209;28;20513;-81
2023/06/09 08:00:16;;;;;;;12.83;9.00;;;22.10;71.40;;;;;;5088526;28;20478;-83
2023/06/09 08:02:45;;;;;;;14.90;9.83;;;22.20;71.30;;;;;;5084126;28;20828;-80
2023/06/09 08:05:24;;;;;;;17.97;8.50;;;22.20;71.30;;;;;;5081325;28;20509;-82
2023/06/09 08:07:52;;;;;;;11.43;8.90;;;22.30;71.20;;;;;;5085620;28;20451;-79
2023/06/09 08:10:21;;;;;;;11.90;8.23;;;22.40;71.00;;;;;;5085728;28;20519;-81
2023/06/09 08:12:51;;;;;;;8.33;6.73;;;22.40;70.90;;;;;;5075557;28;20448;-82
2023/06/09 08:15:19;;;;;;;9.60;7.30;;;22.50;70.60;;;;;;5108335;28;20474;-82
2023/06/09 08:17:47;;;;;;;11.97;7.30;;;22.60;70.30;;;;;;5110424;28;20455;-79
2023/06/09 08:20:15;;;;;;;8.73;6.27;;;22.60;70.10;;;;;;5105874;28;20522;-81
2023/06/09 08:22:43;;;;;;;9.63;7.00;;;22.70;69.70;;;;;;5090959;28;20444;-83
2023/06/09 08:25:12;;;;;;;9.80;7.37;;;22.70;69.50;;;;;;5103754;28;20455;-80
2023/06/09 08:27:42;;;;;;;12.63;6.30;;;22.80;69.20;;;;;;5103053;28;20803;-82
2023/06/09 08:30:10;;;;;;;13.10;6.80;;;22.80;68.90;;;;;;5098025;28;20440;-82
2023/06/09 08:32:40;;;;;;;11.77;7.87;;;22.90;68.70;;;;;;5102256;28;20461;-83
2023/06/09 08:35:09;;;;;;;9.83;6.70;;;22.90;68.30;;;;;;5105280;28;20468;-82
2023/06/09 08:37:38;;;;;;;12.20;7.60;;;22.90;68.00;;;;;;5092205;28;20512;-80
2023/06/09 08:40:08;;;;;;;9.93;6.60;;;23.00;67.80;;;;;;5104133;28;21122;-81
2023/06/09 08:42:39;;;;;;;13.07;6.93;;;23.00;67.60;;;;;;5088197;28;20863;-82
2023/06/09 08:45:10;;;;;;;14.17;5.93;;;23.10;67.40;;;;;;5104893;28;20440;-81
2023/06/09 08:47:42;;;;;;;13.53;6.30;;;23.10;67.30;;;;;;5104039;28;20460;-81
2023/06/09 08:50:11;;;;;;;12.37;6.23;;;23.20;67.30;;;;;;5084989;28;20436;-82
2023/06/09 08:52:40;;;;;;;11.47;7.10;;;23.20;67.30;;;;;;5106554;28;20444;-81
2023/06/09 08:55:15;;;;;;;10.10;7.13;;;23.30;67.20;;;;;;5102877;28;20447;-80
2023/06/09 08:57:43;;;;;;;11.20;6.97;;;23.30;66.80;;;;;;5102768;28;20462;-82
2023/06/09 09:00:14;;;;;;;9.17;6.23;;;23.40;66.70;;;;;;5100739;28;20567;-81
2023/06/09 09:02:43;;;;;;;9.23;5.30;;;23.40;66.50;;;;;;5089706;28;20487;-83
2023/06/09 09:05:11;;;;;;;8.00;5.63;;;23.50;66.00;;;;;;5107034;28;20443;-82
2023/06/09 09:07:40;;;;;;;9.53;6.57;;;23.60;65.70;;;;;;5106532;28;20450;-81
2023/06/09 09:10:08;;;;;;;9.90;6.63;;;23.70;65.60;;;;;;5105825;28;20527;-80
2023/06/09 09:12:47;;;;;;;8.17;6.20;;;23.80;65.50;;;;;;5103565;28;20789;-81
2023/06/09 09:15:17;;;;;;;11.27;5.40;;;23.80;65.20;;;;;;5086199;28;20555;-82
2023/06/09 09:17:46;;;;;;;10.80;5.77;;;23.90;65.00;;;;;;5091506;28;21068;-82
2023/06/09 09:20:15;;;;;;;14.20;5.80;;;23.90;64.90;;;;;;5085520;28;20472;-80
2023/06/09 09:22:45;;;;;;;8.13;4.67;;;24.00;64.60;;;;;;5088618;28;20984;-80
2023/06/09 09:25:22;;;;;;;9.13;5.80;;;24.00;64.20;;;;;;5101347;28;20459;-81
2023/06/09 09:28:01;;;;;;;9.63;6.40;;;24.10;63.80;;;;;;5104058;28;21279;-81
2023/06/09 09:30:47;;;;;;;8.70;5.33;;;24.20;63.60;;;;;;5105508;28;20520;-82
2023/06/09 09:33:18;;;;;;;8.77;5.33;;;24.20;63.20;;;;;;5085898;28;20464;-82
2023/06/09 09:35:48;;;;;;;12.57;6.30;;;24.20;63.30;;;;;;5106122;28;20456;-82
2023/06/09 09:38:18;;;;;;;7.33;4.60;;;24.30;63.00;;;;;;5097790;28;20463;-82
2023/06/09 09:40:47;;;;;;;7.00;4.73;;;24.30;62.60;;;;;;5106065;28;20555;-82
2023/06/09 09:43:16;;;;;;;9.50;5.73;;;24.30;62.40;;;;;;5103997;28;20475;-82
2023/06/09 09:45:47;;;;;;;8.97;5.87;;;24.40;62.40;;;;;;5090461;28;20452;-81
2023/06/09 09:48:18;;;;;;;7.80;5.47;;;24.40;62.30;;;;;;5103721;28;21343;-82
2023/06/09 09:50:47;;;;;;;8.50;5.73;;;24.50;62.20;;;;;;5103391;28;20444;-81
2023/06/09 09:53:37;;;;;;;10.23;5.63;;;24.50;62.10;;;;;;5095327;28;20462;-81
2023/06/09 09:56:05;;;;;;;10.27;5.90;;;24.60;61.90;;;;;;5097921;28;20547;-80
2023/06/09 09:58:36;;;;;;;10.70;5.83;;;24.60;62.00;;;;;;5090937;28;20881;-81
2023/06/09 10:01:09;;;;;;;36.43;8.17;;;24.60;61.90;;;;;;5087350;28;20896;-81
2023/06/09 10:03:41;;;;;;;8.53;5.40;;;24.60;62.00;;;;;;5108380;28;20456;-82
2023/06/09 10:06:11;;;;;;;18.27;5.40;;;24.70;61.60;;;;;;5093770;28;20452;-82
2023/06/09 10:08:42;;;;;;;11.80;6.67;;;24.70;61.50;;;;;;5107911;27;20471;-82
2023/06/09 10:11:11;;;;;;;9.60;5.27;;;24.70;61.20;;;;;;5104539;28;20543;-80
2023/06/09 10:13:39;;;;;;;17.93;6.40;;;24.80;61.00;;;;;;5103972;28;20475;-81
2023/06/09 10:16:10;;;;;;;10.70;4.97;;;24.80;61.00;;;;;;5110265;28;20535;-80
2023/06/09 10:18:41;;;;;;;8.17;5.40;;;24.90;60.90;;;;;;5102594;28;20975;-82
2023/06/09 10:21:11;;;;;;;7.80;5.40;;;24.90;60.70;;;;;;5107458;28;21036;-81
2023/06/09 10:23:40;;;;;;;7.93;4.80;;;24.90;60.60;;;;;;5086918;28;20483;-81
2023/06/09 10:26:10;;;;;;;9.20;4.90;;;25.00;60.60;;;;;;5088952;28;20444;-80
2023/06/09 10:28:38;;;;;;;7.03;4.87;;;25.00;60.20;;;;;;5089419;28;20550;-80
2023/06/09 10:31:11;;;;;;;8.40;4.90;;;25.10;60.00;;;;;;5085718;28;20911;-80
2023/06/09 10:33:46;;;;;;;8.70;5.13;;;25.10;59.70;;;;;;5104670;28;20456;-81
2023/06/09 10:36:16;;;;;;;7.83;4.50;;;25.10;59.60;;;;;;5106622;28;20475;-80
2023/06/09 10:38:47;;;;;;;9.90;4.93;;;25.10;59.30;;;;;;5093691;28;20542;-81
2023/06/09 10:41:22;;;;;;;9.27;5.37;;;25.10;59.20;;;;;;5102114;28;20502;-80
2023/06/09 10:44:24;;;;;;;7.53;5.10;;;25.20;59.10;;;;;;5101735;28;20482;-81
2023/06/09 10:46:54;;;;;;;11.03;4.93;;;25.20;58.60;;;;;;5086147;28;20508;-80
2023/06/09 10:49:43;;;;;;;9.30;5.53;;;25.20;58.80;;;;;;5093836;28;20489;-81
2023/06/09 10:52:45;;;;;;;9.67;5.20;;;25.30;58.60;;;;;;5084594;28;20475;-80
2023/06/09 10:55:15;;;;;;;12.17;5.93;;;25.30;58.50;;;;;;5086714;28;20483;-81
2023/06/09 10:57:44;;;;;;;37.87;6.77;;;25.30;58.40;;;;;;5078054;28;20489;-80
2023/06/09 11:00:14;;;;;;;7.83;5.77;;;25.40;58.40;;;;;;5077024;28;20478;-80
2023/06/09 11:02:44;;;;;;;9.47;5.70;;;25.40;58.50;;;;;;5083393;28;20490;-80
2023/06/09 11:05:15;;;;;;;11.90;6.47;;;25.40;58.30;;;;;;5095784;28;20479;-80
2023/06/09 11:07:48;;;;;;;8.30;5.87;;;25.40;58.30;;;;;;5098787;28;20513;-80
2023/06/09 11:10:35;;;;;;;8.50;5.83;;;25.40;58.40;;;;;;5097857;28;20487;-80
2023/06/09 11:13:19;;;;;;;8.90;6.40;;;25.50;58.50;;;;;;5089804;28;20547;-80
2023/06/09 11:16:02;;;;;;;8.20;5.50;;;25.60;58.50;;;;;;5093413;28;20483;-80
2023/06/09 11:18:32;;;;;;;13.47;6.57;;;25.60;58.60;;;;;;5093223;28;20564;-80
2023/06/09 11:21:14;;;;;;;10.97;5.67;;;25.70;58.50;;;;;;5093849;28;20472;-80
2023/06/09 11:23:55;;;;;;;9.40;5.73;;;25.70;58.30;;;;;;5093505;28;21001;-80
2023/06/09 11:26:33;;;;;;;9.57;5.50;;;25.70;58.50;;;;;;5090032;28;20788;-80
2023/06/09 11:29:04;;;;;;;11.53;6.77;;;25.70;58.50;;;;;;5096979;28;21137;-80
2023/06/09 11:31:48;;;;;;;8.83;5.53;;;25.80;58.30;;;;;;5090185;28;20981;-81
2023/06/09 11:34:49;;;;;;;8.37;6.50;;;25.80;58.20;;;;;;5107011;28;20787;-82
2023/06/09 11:37:20;;;;;;;9.57;6.27;;;25.80;58.10;;;;;;5105650;28;20448;-82
2023/06/09 11:39:49;;;;;;;8.20;6.00;;;25.90;58.30;;;;;;5107134;28;20497;-81
2023/06/09 11:42:17;;;;;;;9.33;5.90;;;25.80;58.20;;;;;;5106897;28;20479;-81
2023/06/09 11:44:45;;;;;;;11.30;6.90;;;25.90;58.20;;;;;;5090892;28;20563;-81
2023/06/09 11:47:27;;;;;;;11.90;6.60;;;25.90;58.30;;;;;;5102330;28;20840;-79
2023/06/09 11:50:05;;;;;;;11.53;7.20;;;26.10;58.20;;;;;;5088233;28;20462;-81
2023/06/09 11:52:35;;;;;;;9.03;6.83;;;26.10;57.80;;;;;;5088832;28;20452;-80
2023/06/09 11:55:05;;;;;;;10.00;6.27;;;26.20;57.80;;;;;;5085344;28;20464;-82
2023/06/09 11:57:34;;;;;;;10.80;6.47;;;26.20;57.50;;;;;;5102932;28;20463;-80
2023/06/09 12:00:12;;;;;;;8.23;6.13;;;26.20;57.20;;;;;;5106424;28;20451;-80
2023/06/09 12:02:41;;;;;;;11.20;7.00;;;26.20;57.10;;;;;;5104121;28;20559;-80
2023/06/09 12:05:11;;;;;;;11.13;6.50;;;26.20;56.90;;;;;;5108474;28;20436;-80
2023/06/09 12:07:44;;;;;;;8.50;6.30;;;26.20;56.70;;;;;;5086316;28;20810;-80
2023/06/09 12:10:17;;;;;;;8.40;6.50;;;26.30;56.50;;;;;;5102433;28;20448;-79
2023/06/09 12:12:47;;;;;;;10.13;6.70;;;26.30;56.40;;;;;;5085366;28;20454;-79
2023/06/09 12:15:18;;;;;;;10.27;6.67;;;26.40;56.50;;;;;;5106485;28;20452;-82
2023/06/09 12:17:48;;;;;;;8.50;6.30;;;26.50;56.40;;;;;;5105856;28;20489;-82
2023/06/09 12:20:22;;;;;;;9.40;6.77;;;26.60;56.20;;;;;;5103278;28;20440;-80
2023/06/09 12:22:51;;;;;;;12.43;7.30;;;26.60;55.80;;;;;;5087958;28;20561;-79
2023/06/09 12:25:23;;;;;;;8.70;6.40;;;26.70;55.50;;;;;;5105729;28;21215;-80
2023/06/09 12:27:52;;;;;;;10.43;6.20;;;26.70;55.40;;;;;;5107835;28;20539;-81
2023/06/09 12:30:37;;;;;;;10.67;6.53;;;26.80;55.30;;;;;;5105948;28;20480;-81
2023/06/09 12:33:10;;;;;;;9.80;5.73;;;26.80;54.80;;;;;;5085976;28;20597;-81
2023/06/09 12:35:43;;;;;;;10.63;6.30;;;26.70;54.40;;;;;;5086262;28;20453;-79
2023/06/09 12:38:14;;;;;;;8.47;5.70;;;26.70;54.40;;;;;;5105299;28;20452;-82
2023/06/09 12:40:46;;;;;;;8.77;6.60;;;26.80;54.30;;;;;;5104418;28;20444;-81
2023/06/09 12:43:16;;;;;;;9.00;6.30;;;26.80;54.00;;;;;;5100353;28;20463;-80
2023/06/09 12:46:02;;;;;;;10.00;6.53;;;26.90;53.90;;;;;;5084652;28;20449;-80
2023/06/09 12:48:30;;;;;;;8.00;5.80;;;26.90;53.80;;;;;;5082444;28;20936;-82
2023/06/09 12:51:00;;;;;;;10.13;6.50;;;26.90;53.90;;;;;;5109571;28;20444;-80